createdAt,value
2022-12-29T00:00:25.423Z,99918.56
2022-12-29T00:02:54.265Z,99917.63
2022-12-29T00:05:22.115Z,99916.09
2022-12-29T00:07:49.868Z,99913.22
2022-12-29T00:10:17.838Z,99922.22
2022-12-29T00:13:04.543Z,99910.66
2022-12-29T00:15:38.646Z,99910.66
2022-12-29T00:18:08.109Z,99904.25
2022-12-29T00:20:57.976Z,99908.56
2022-12-29T00:23:44.769Z,99902.63
2022-12-29T00:26:34.822Z,99899.84
2022-12-29T00:29:21.872Z,99908.84
2022-12-29T00:32:09.563Z,99912.53
2022-12-29T00:34:55.978Z,99912.53
2022-12-29T00:37:43.737Z,99911.66
2022-12-29T00:40:30.244Z,99912.63
2022-12-29T00:43:16.718Z,99909.09
2022-12-29T00:45:44.903Z,99920.56
2022-12-29T00:48:13.202Z,99914.28
2022-12-29T00:50:41.829Z,99915.19
2022-12-29T00:53:09.623Z,99922.22
2022-12-29T00:55:40.279Z,99910.50
2022-12-29T00:58:07.983Z,99915.75
2022-12-29T01:00:35.747Z,99920.03
2022-12-29T01:03:19.710Z,99920.03
2022-12-29T01:05:47.577Z,99926.09
2022-12-29T01:08:15.539Z,99929.53
2022-12-29T01:10:43.451Z,99924.16
2022-12-29T01:13:11.144Z,99935.81
2022-12-29T01:15:38.986Z,99934.97
2022-12-29T01:18:06.765Z,99931.28
2022-12-29T01:20:34.896Z,99926.09
2022-12-29T01:23:05.216Z,99925.47
2022-12-29T01:25:33.014Z,99919.88
2022-12-29T01:28:01.720Z,99910.03
2022-12-29T01:30:29.554Z,99911.84
2022-12-29T01:32:57.375Z,99909.06
2022-12-29T01:35:24.999Z,99917.09
2022-12-29T01:37:52.851Z,99920.56
2022-12-29T01:40:21.671Z,99922.28
2022-12-29T01:42:49.495Z,99922.28
2022-12-29T01:45:19.100Z,99911.41
2022-12-29T01:48:02.554Z,99922.03
2022-12-29T01:50:34.677Z,99916.78
2022-12-29T01:53:30.526Z,99914.69
2022-12-29T01:56:02.914Z,99913.91
2022-12-29T01:58:37.402Z,99909.25
2022-12-29T02:01:06.060Z,99919.84
2022-12-29T02:03:38.152Z,99915.34
2022-12-29T02:06:29.315Z,99912.41
2022-12-29T02:08:58.591Z,99911.81
2022-12-29T02:11:29.552Z,99920.53
2022-12-29T02:14:00.968Z,99908.97
2022-12-29T02:16:57.927Z,99905.34
2022-12-29T02:20:20.818Z,99898.44
2022-12-29T02:23:24.702Z,99895.00
2022-12-29T02:26:32.432Z,99895.06
2022-12-29T02:29:38.277Z,99906.94
2022-12-29T02:32:31.570Z,99897.84
2022-12-29T02:35:28.877Z,99898.81
2022-12-29T02:38:27.361Z,99906.06
2022-12-29T02:41:09.664Z,99897.16
2022-12-29T02:44:17.702Z,99888.28
2022-12-29T02:46:55.368Z,99882.16
2022-12-29T02:49:34.933Z,99873.97
2022-12-29T02:52:09.566Z,99884.66
2022-12-29T02:54:43.543Z,99886.44
2022-12-29T02:57:22.584Z,99887.16
2022-12-29T03:00:14.462Z,99895.06
2022-12-29T03:02:57.660Z,99888.00
2022-12-29T03:05:57.095Z,99883.59
2022-12-29T03:09:05.833Z,99877.56
2022-12-29T03:12:45.980Z,99866.00
2022-12-29T03:15:44.439Z,99862.47
2022-12-29T03:18:22.819Z,99854.34
2022-12-29T03:20:56.930Z,99871.94
2022-12-29T03:23:27.984Z,99865.56
2022-12-29T03:26:00.934Z,99853.16
2022-12-29T03:28:38.719Z,99852.09
2022-12-29T03:31:10.156Z,99840.63
2022-12-29T03:33:40.928Z,99839.69
2022-12-29T03:36:17.413Z,99832.69
2022-12-29T03:39:13.067Z,99832.59
2022-12-29T03:41:45.509Z,99830.00
2022-12-29T03:44:14.777Z,99821.22
2022-12-29T03:46:42.629Z,99819.41
2022-12-29T03:49:10.431Z,99813.19
2022-12-29T03:51:38.327Z,99808.69
2022-12-29T03:54:07.225Z,99802.66
2022-12-29T03:56:35.423Z,99803.63
2022-12-29T03:59:04.763Z,99792.31
2022-12-29T04:01:39.174Z,99800.34
2022-12-29T04:04:07.137Z,99791.56
2022-12-29T04:06:34.939Z,99789.06
2022-12-29T04:09:06.589Z,99789.25
2022-12-29T04:11:40.428Z,99789.34
2022-12-29T04:14:10.534Z,99790.19
2022-12-29T04:16:39.685Z,99797.47
2022-12-29T04:19:08.780Z,99785.97
2022-12-29T04:21:38.158Z,99779.75
2022-12-29T04:24:07.712Z,99792.97
2022-12-29T04:26:40.381Z,99784.94
2022-12-29T04:29:22.001Z,99781.41
2022-12-29T04:32:11.474Z,99783.22
2022-12-29T04:34:45.423Z,99784.94
2022-12-29T04:37:13.464Z,99777.69
2022-12-29T04:39:41.393Z,99766.13
2022-12-29T04:42:09.995Z,99765.09
2022-12-29T04:44:44.754Z,99772.25
2022-12-29T04:47:23.542Z,99770.34
2022-12-29T04:50:14.253Z,99768.72
2022-12-29T04:52:45.260Z,99771.31
2022-12-29T04:55:15.684Z,99775.69
2022-12-29T04:57:43.562Z,99779.06
2022-12-29T05:00:16.082Z,99791.47
2022-12-29T05:02:43.997Z,99794.03
2022-12-29T05:05:12.020Z,99788.69
2022-12-29T05:07:45.124Z,99787.66
2022-12-29T05:10:13.186Z,99791.97
2022-12-29T05:12:42.774Z,99793.78
2022-12-29T05:15:12.258Z,99794.56
2022-12-29T05:17:40.053Z,99790.25
2022-12-29T05:20:09.832Z,99778.84
2022-12-29T05:22:38.185Z,99785.75
2022-12-29T05:25:07.228Z,99785.69
2022-12-29T05:27:45.832Z,99787.47
2022-12-29T05:30:31.867Z,99776.75
2022-12-29T05:33:20.299Z,99777.56
2022-12-29T05:36:10.906Z,99781.78
2022-12-29T05:39:03.041Z,99770.50
2022-12-29T05:41:31.759Z,99784.53
2022-12-29T05:44:17.410Z,99787.19
2022-12-29T05:47:15.045Z,99782.69
2022-12-29T05:49:59.397Z,99790.13
2022-12-29T05:52:50.371Z,99785.47
2022-12-29T05:55:18.692Z,99789.81
2022-12-29T05:57:48.539Z,99776.50
2022-12-29T06:00:18.671Z,99778.31
2022-12-29T06:02:48.275Z,99773.75
2022-12-29T06:05:17.821Z,99766.59
2022-12-29T06:07:46.312Z,99771.81
2022-12-29T06:10:16.946Z,99768.28
2022-12-29T06:12:49.086Z,99777.28
2022-12-29T06:15:17.979Z,99770.97
2022-12-29T06:17:47.415Z,99755.03
2022-12-29T06:20:18.349Z,99752.06
2022-12-29T06:22:47.446Z,99756.63
2022-12-29T06:25:15.231Z,99759.88
2022-12-29T06:27:45.137Z,99755.41
2022-12-29T06:30:13.890Z,99751.72
2022-12-29T06:32:42.505Z,99748.09
2022-12-29T06:35:13.009Z,99747.28
2022-12-29T06:37:45.776Z,99747.91
2022-12-29T06:40:13.833Z,99746.94
2022-12-29T06:43:08.304Z,99740.81
2022-12-29T06:45:47.171Z,99730.03
2022-12-29T06:48:14.870Z,99730.88
2022-12-29T06:50:42.781Z,99722.75
2022-12-29T06:53:10.475Z,99719.22
2022-12-29T06:55:38.489Z,99722.59
2022-12-29T06:58:06.309Z,99722.59
2022-12-29T07:00:34.225Z,99723.44
2022-12-29T07:03:02.282Z,99717.50
2022-12-29T07:05:32.388Z,99736.34
2022-12-29T07:08:00.967Z,99736.34
2022-12-29T07:10:29.196Z,99736.41
2022-12-29T07:12:57.015Z,99738.34
2022-12-29T07:15:24.816Z,99742.72
2022-12-29T07:17:52.677Z,99748.09
2022-12-29T07:20:26.206Z,99744.63
2022-12-29T07:22:54.702Z,99742.97
2022-12-29T07:25:23.023Z,99748.31
2022-12-29T07:27:51.002Z,99758.34
2022-12-29T07:30:18.794Z,99756.63
2022-12-29T07:32:46.577Z,99744.50
2022-12-29T07:35:14.585Z,99750.41
2022-12-29T07:37:42.364Z,99761.97
2022-12-29T07:40:11.734Z,99760.25
2022-12-29T07:42:39.478Z,99762.09
2022-12-29T07:45:10.547Z,99761.97
2022-12-29T07:47:57.020Z,99767.53
2022-12-29T07:50:24.704Z,99756.06
2022-12-29T07:52:52.832Z,99757.09
2022-12-29T07:55:20.688Z,99758.03
2022-12-29T07:57:48.490Z,99762.47
2022-12-29T08:00:16.917Z,99759.84
2022-12-29T08:02:45.841Z,99767.03
2022-12-29T08:05:13.963Z,99768.84
2022-12-29T08:07:43.925Z,99772.97
2022-12-29T08:10:12.895Z,99775.72
2022-12-29T08:12:42.047Z,99768.56
2022-12-29T08:15:12.310Z,99784.44
2022-12-29T08:17:40.550Z,99779.09
2022-12-29T08:20:09.517Z,99781.69
2022-12-29T08:22:37.801Z,99807.09
2022-12-29T08:25:06.220Z,99799.88
2022-12-29T08:27:33.915Z,99798.75
2022-12-29T08:30:02.059Z,99813.66
2022-12-29T08:32:29.895Z,99810.22
2022-12-29T08:34:57.824Z,99809.94
2022-12-29T08:37:30.862Z,99802.78
2022-12-29T08:39:59.797Z,99812.50
2022-12-29T08:42:31.930Z,99813.09
2022-12-29T08:45:01.139Z,99816.56
2022-12-29T08:47:29.421Z,99824.38
2022-12-29T08:49:57.463Z,99821.72
2022-12-29T08:52:25.362Z,99821.44
2022-12-29T08:54:53.221Z,99813.31
2022-12-29T08:57:22.161Z,99828.22
2022-12-29T09:00:07.109Z,99836.94
2022-12-29T09:02:35.093Z,99826.13
2022-12-29T09:05:03.256Z,99826.91
2022-12-29T09:07:31.185Z,99833.97
2022-12-29T09:09:59.159Z,99825.78
2022-12-29T09:12:30.207Z,99827.38
2022-12-29T09:15:00.994Z,99839.34
2022-12-29T09:17:47.381Z,99836.41
2022-12-29T09:20:20.282Z,99855.81
2022-12-29T09:22:48.824Z,99850.38
2022-12-29T09:25:17.091Z,99848.25
2022-12-29T09:27:44.838Z,99861.53
2022-12-29T09:30:15.378Z,99858.88
2022-12-29T09:32:45.236Z,99857.16
2022-12-29T09:35:14.733Z,99861.94
2022-12-29T09:37:43.179Z,99877.84
2022-12-29T09:40:31.983Z,99875.91
2022-12-29T09:43:36.698Z,99876.59
2022-12-29T09:46:22.048Z,99884.41
2022-12-29T09:49:17.122Z,99876.69
2022-12-29T09:51:52.036Z,99887.31
2022-12-29T09:54:53.730Z,99887.88
2022-12-29T09:57:44.951Z,99896.03
2022-12-29T10:00:20.997Z,99896.03
2022-12-29T10:03:20.546Z,99906.53
2022-12-29T10:06:14.988Z,99904.63
2022-12-29T10:09:21.415Z,99904.63
2022-12-29T10:12:09.993Z,99910.00
2022-12-29T10:15:34.877Z,99909.88
2022-12-29T10:18:46.818Z,99918.09
2022-12-29T10:22:22.107Z,99913.03
2022-12-29T10:24:54.686Z,99917.34
2022-12-29T10:27:23.253Z,99910.56
2022-12-29T10:29:57.736Z,99917.63
2022-12-29T10:32:41.942Z,99913.41
2022-12-29T10:35:18.622Z,99902.22
2022-12-29T10:38:14.301Z,99905.06
2022-12-29T10:40:59.520Z,99902.78
2022-12-29T10:43:30.624Z,99909.38
2022-12-29T10:46:13.869Z,99906.75
2022-12-29T10:48:46.251Z,99913.06
2022-12-29T10:51:31.259Z,99920.09
2022-12-29T10:54:21.364Z,99910.41
2022-12-29T10:57:17.495Z,99909.38
2022-12-29T10:59:45.861Z,99896.44
2022-12-29T11:03:01.034Z,99901.72
2022-12-29T11:05:37.680Z,99899.31
2022-12-29T11:08:26.304Z,99901.03
2022-12-29T11:11:10.790Z,99905.41
2022-12-29T11:14:23.392Z,99899.03
2022-12-29T11:17:04.718Z,99889.25
2022-12-29T11:19:40.507Z,99898.25
2022-12-29T11:22:29.689Z,99900.16
2022-12-29T11:25:13.135Z,99904.47
2022-12-29T11:27:55.436Z,99917.09
2022-12-29T11:30:32.589Z,99913.28
2022-12-29T11:33:20.215Z,99917.84
2022-12-29T11:35:48.519Z,99911.47
2022-12-29T11:38:43.194Z,99905.84
2022-12-29T11:41:31.328Z,99909.00
2022-12-29T11:44:04.787Z,99889.22
2022-12-29T11:46:39.364Z,99890.53
2022-12-29T11:49:07.607Z,99899.72
2022-12-29T11:51:49.121Z,99895.63
2022-12-29T11:54:32.449Z,99891.88
2022-12-29T11:57:16.309Z,99888.91
2022-12-29T11:59:55.990Z,99897.34
2022-12-29T12:02:43.062Z,99876.63
2022-12-29T12:05:33.729Z,99883.97
2022-12-29T12:08:32.648Z,99868.56
2022-12-29T12:11:13.278Z,99871.88
2022-12-29T12:14:04.253Z,99877.19
2022-12-29T12:16:55.646Z,99890.09
2022-12-29T12:19:48.140Z,99853.13
2022-12-29T12:22:39.781Z,99859.16
2022-12-29T12:25:22.253Z,99870.28
2022-12-29T12:28:36.593Z,99859.75
2022-12-29T12:31:22.680Z,99864.63
2022-12-29T12:34:00.588Z,99856.00
2022-12-29T12:36:59.131Z,99856.00
2022-12-29T12:39:34.613Z,99861.66
2022-12-29T12:42:38.495Z,99862.22
2022-12-29T12:45:20.952Z,99857.72
2022-12-29T12:48:06.903Z,99846.88
2022-12-29T12:51:38.071Z,99852.53
2022-12-29T12:54:30.847Z,99852.34
2022-12-29T12:57:09.866Z,99866.50
2022-12-29T13:00:11.917Z,99849.44
2022-12-29T13:03:00.225Z,99852.91
2022-12-29T13:05:52.709Z,99844.88
2022-12-29T13:09:21.319Z,99851.28
2022-12-29T13:12:23.977Z,99843.16
2022-12-29T13:15:31.139Z,99843.91
2022-12-29T13:18:21.348Z,99848.00
2022-12-29T13:20:56.647Z,99838.97
2022-12-29T13:23:40.104Z,99829.03
2022-12-29T13:26:48.920Z,99842.13
2022-12-29T13:29:55.664Z,99846.53
2022-12-29T13:33:19.395Z,99856.41
2022-12-29T13:36:44.341Z,99845.00
2022-12-29T13:39:28.043Z,99840.06
2022-12-29T13:41:57.907Z,99842.53
2022-12-29T13:44:37.184Z,99839.84
2022-12-29T13:47:37.680Z,99844.47
2022-12-29T13:50:19.471Z,99851.53
2022-12-29T13:53:21.059Z,99854.75
2022-12-29T13:55:59.857Z,99860.00
2022-12-29T13:58:57.086Z,99862.81
2022-12-29T14:02:11.143Z,99860.41
2022-12-29T14:05:02.395Z,99857.91
2022-12-29T14:07:37.401Z,99865.28
2022-12-29T14:10:06.676Z,99874.22
2022-12-29T14:12:42.791Z,99874.22
2022-12-29T14:15:13.582Z,99896.59
2022-12-29T14:18:03.223Z,99876.94
2022-12-29T14:20:31.111Z,99890.84
2022-12-29T14:23:11.045Z,99895.41
2022-12-29T14:26:07.734Z,99896.94
2022-12-29T14:28:36.577Z,99897.50
2022-12-29T14:31:30.804Z,99902.13
2022-12-29T14:34:08.099Z,99906.91
2022-12-29T14:36:41.347Z,99901.22
2022-12-29T14:39:36.836Z,99909.75
2022-12-29T14:42:09.909Z,99914.69
2022-12-29T14:45:02.915Z,99912.56
2022-12-29T14:47:42.130Z,99928.19
2022-12-29T14:50:17.691Z,99922.44
2022-12-29T14:53:04.359Z,99934.53
2022-12-29T14:55:47.770Z,99945.38
2022-12-29T14:58:39.344Z,99940.03
2022-12-29T15:01:30.162Z,99937.66
2022-12-29T15:04:18.876Z,99947.72
2022-12-29T15:06:48.622Z,99956.34
2022-12-29T15:09:50.256Z,99920.31
2022-12-29T15:12:23.628Z,99926.59
2022-12-29T15:14:56.424Z,99929.09
2022-12-29T15:17:35.859Z,99917.63
2022-12-29T15:20:26.754Z,99919.19
2022-12-29T15:23:18.104Z,99934.53
2022-12-29T15:25:56.797Z,99945.16
2022-12-29T15:28:26.917Z,99943.44
2022-12-29T15:31:05.037Z,99934.38
2022-12-29T15:33:38.005Z,99935.41
2022-12-29T15:36:20.064Z,99926.41
2022-12-29T15:38:48.861Z,99930.19
2022-12-29T15:42:00.556Z,99950.06
2022-12-29T15:44:45.169Z,99959.41
2022-12-29T15:47:30.598Z,99968.63
2022-12-29T15:50:15.528Z,99965.09
2022-12-29T15:52:43.826Z,99973.47
2022-12-29T15:55:35.143Z,99985.19
2022-12-29T15:58:06.845Z,99982.88
2022-12-29T16:00:39.917Z,99980.53
2022-12-29T16:03:15.063Z,99979.75
2022-12-29T16:05:56.541Z,99983.53
2022-12-29T16:08:42.647Z,99985.59
2022-12-29T16:11:26.541Z,99989.41
2022-12-29T16:13:55.654Z,100000.25
2022-12-29T16:16:37.602Z,100005.47
2022-12-29T16:19:14.922Z,100006.31
2022-12-29T16:21:44.267Z,100009.16
2022-12-29T16:24:21.223Z,100020.59
2022-12-29T16:27:26.653Z,100012.69
2022-12-29T16:29:56.400Z,100012.78
2022-12-29T16:32:31.128Z,100004.56
2022-12-29T16:35:14.117Z,100015.19
2022-12-29T16:37:42.005Z,100022.41
2022-12-29T16:40:18.999Z,100015.97
2022-12-29T16:42:51.739Z,100018.72
2022-12-29T16:45:20.075Z,100021.41
2022-12-29T16:48:11.916Z,100022.97
2022-12-29T16:50:43.186Z,100018.72
2022-12-29T16:53:38.231Z,100031.66
2022-12-29T16:56:20.893Z,100037.97
2022-12-29T16:58:53.449Z,100024.06
2022-12-29T17:01:22.255Z,100028.22
2022-12-29T17:03:59.191Z,100029.94
2022-12-29T17:06:27.502Z,100037.09
2022-12-29T17:08:55.216Z,100023.13
2022-12-29T17:11:58.976Z,100038.78
2022-12-29T17:14:37.219Z,100033.66
2022-12-29T17:17:34.131Z,100032.88
2022-12-29T17:20:07.271Z,100036.59
2022-12-29T17:22:35.309Z,100040.13
2022-12-29T17:25:03.866Z,100036.75
2022-12-29T17:27:38.788Z,100038.41
2022-12-29T17:30:16.725Z,100056.78
2022-12-29T17:32:54.645Z,100049.72
2022-12-29T17:35:23.054Z,100053.41
2022-12-29T17:37:51.075Z,100064.09
2022-12-29T17:40:33.137Z,100071.25
2022-12-29T17:43:01.295Z,100071.59
2022-12-29T17:45:33.417Z,100083.84
2022-12-29T17:48:01.961Z,100084.09
2022-12-29T17:50:31.567Z,100082.19
2022-12-29T17:53:06.472Z,100086.59
2022-12-29T17:55:38.252Z,100088.50
2022-12-29T17:58:31.627Z,100082.28
2022-12-29T18:01:02.200Z,100089.50
2022-12-29T18:03:39.749Z,100088.97
2022-12-29T18:06:11.542Z,100063.19
2022-12-29T18:08:41.100Z,100067.50
2022-12-29T18:11:24.956Z,100054.84
2022-12-29T18:13:56.619Z,100069.06
2022-12-29T18:16:24.558Z,100079.00
2022-12-29T18:18:52.578Z,100079.00
2022-12-29T18:21:23.944Z,100053.13
2022-12-29T18:23:52.450Z,100047.06
2022-12-29T18:26:28.880Z,100048.09
2022-12-29T18:28:58.740Z,100047.25
2022-12-29T18:31:30.413Z,100044.63
2022-12-29T18:34:03.126Z,100043.88
2022-12-29T18:36:32.441Z,100043.16
2022-12-29T18:39:01.041Z,100046.78
2022-12-29T18:41:30.078Z,100062.66
2022-12-29T18:43:59.626Z,100068.00
2022-12-29T18:46:28.088Z,100068.06
2022-12-29T18:48:56.025Z,100068.94
2022-12-29T18:51:26.206Z,100065.41
2022-12-29T18:53:54.321Z,100057.56
2022-12-29T18:56:23.660Z,100060.16
2022-12-29T18:58:53.377Z,100067.44
2022-12-29T19:01:25.007Z,100049.59
2022-12-29T19:03:53.537Z,100070.16
2022-12-29T19:06:21.824Z,100066.19
2022-12-29T19:08:51.893Z,100054.41
2022-12-29T19:11:20.060Z,100050.16
2022-12-29T19:13:47.986Z,100064.25
2022-12-29T19:16:25.685Z,100066.75
2022-12-29T19:19:08.986Z,100066.06
2022-12-29T19:21:38.349Z,100068.72
2022-12-29T19:24:07.077Z,100068.78
2022-12-29T19:26:38.353Z,100059.91
2022-12-29T19:29:08.978Z,100058.31
2022-12-29T19:31:38.611Z,100062.50
2022-12-29T19:34:07.139Z,100055.50
2022-12-29T19:36:35.259Z,100054.69
2022-12-29T19:39:03.221Z,100065.19
2022-12-29T19:41:31.389Z,100069.78
2022-12-29T19:43:59.788Z,100066.13
2022-12-29T19:46:27.898Z,100070.53
2022-12-29T19:48:59.146Z,100064.44
2022-12-29T19:51:28.144Z,100075.22
2022-12-29T19:53:58.495Z,100061.09
2022-12-29T19:56:26.788Z,100061.00
2022-12-29T19:58:57.822Z,100063.56
2022-12-29T20:01:26.312Z,100050.63
2022-12-29T20:03:54.467Z,100074.34
2022-12-29T20:06:23.065Z,100073.50
2022-12-29T20:08:51.570Z,100086.00
2022-12-29T20:11:19.975Z,100089.59
2022-12-29T20:13:48.195Z,100099.41
2022-12-29T20:16:19.634Z,100106.56
2022-12-29T20:18:48.449Z,100102.38
2022-12-29T20:21:20.963Z,100097.22
2022-12-29T20:23:50.868Z,100109.69
2022-12-29T20:26:26.346Z,100115.97
2022-12-29T20:28:55.323Z,100115.41
2022-12-29T20:31:37.677Z,100117.16
2022-12-29T20:34:07.410Z,100122.56
2022-12-29T20:36:38.629Z,100125.38
2022-12-29T20:39:12.469Z,100121.06
2022-12-29T20:41:40.220Z,100120.13
2022-12-29T20:44:08.211Z,100121.06
2022-12-29T20:46:43.330Z,100114.16
2022-12-29T20:49:12.387Z,100122.25
2022-12-29T20:54:35.531Z,100130.31
2022-12-29T20:57:07.419Z,100122.47
2022-12-29T20:59:35.365Z,100143.66
2022-12-29T21:02:03.870Z,100139.25
2022-12-29T21:04:49.989Z,100124.31
2022-12-29T21:07:20.315Z,100129.66
2022-12-29T21:09:48.606Z,100150.25
2022-12-29T21:12:16.614Z,100152.91
2022-12-29T21:14:45.924Z,100153.91
2022-12-29T21:17:14.028Z,100165.63
2022-12-29T21:19:42.220Z,100168.22
2022-12-29T21:22:10.156Z,100162.94
2022-12-29T21:24:38.594Z,100156.75
2022-12-29T21:27:07.374Z,100163.00
2022-12-29T21:29:35.588Z,100165.75
2022-12-29T21:32:06.600Z,100164.91
2022-12-29T21:34:35.592Z,100158.81
2022-12-29T21:37:03.902Z,100153.66
2022-12-29T21:39:31.759Z,100167.78
2022-12-29T21:42:01.734Z,100160.72
2022-12-29T21:44:48.499Z,100166.06
2022-12-29T21:47:16.784Z,100174.94
2022-12-29T21:49:44.764Z,100179.41
2022-12-29T21:52:13.032Z,100182.00
2022-12-29T21:55:00.115Z,100181.03
2022-12-29T21:57:46.803Z,100186.59
2022-12-29T22:00:34.728Z,100185.69
2022-12-29T22:03:23.644Z,100181.25
2022-12-29T22:06:11.987Z,100190.22
2022-12-29T22:08:59.665Z,100181.50
2022-12-29T22:11:46.502Z,100184.31
2022-12-29T22:14:14.783Z,100191.50
2022-12-29T22:16:42.786Z,100202.97
2022-12-29T22:19:11.271Z,100201.25
2022-12-29T22:21:40.409Z,100208.41
2022-12-29T22:24:10.054Z,100218.25
2022-12-29T22:26:37.930Z,100228.16
2022-12-29T22:29:05.990Z,100231.78
2022-12-29T22:31:34.544Z,100230.94
2022-12-29T22:34:04.506Z,100234.78
2022-12-29T22:36:33.389Z,100248.91
2022-12-29T22:39:01.361Z,100248.19
2022-12-29T22:41:29.487Z,100251.84
2022-12-29T22:43:57.677Z,100252.00
2022-12-29T22:46:25.952Z,100270.59
2022-12-29T22:48:54.101Z,100266.22
2022-12-29T22:51:21.947Z,100276.06
2022-12-29T22:53:51.132Z,100261.84
2022-12-29T22:56:19.625Z,100282.13
2022-12-29T22:58:49.858Z,100284.72
2022-12-29T23:01:22.549Z,100289.13
2022-12-29T23:03:50.886Z,100291.78
2022-12-29T23:06:19.048Z,100288.25
2022-12-29T23:08:47.423Z,100284.72
2022-12-29T23:11:15.506Z,100282.91
2022-12-29T23:13:45.271Z,100277.75
2022-12-29T23:16:15.493Z,100283.00
2022-12-29T23:18:45.609Z,100280.34
2022-12-29T23:21:16.311Z,100286.69
2022-12-29T23:23:54.973Z,100278.72
2022-12-29T23:26:32.517Z,100280.44
2022-12-29T23:29:03.119Z,100281.47
2022-12-29T23:31:32.507Z,100280.69
2022-12-29T23:34:02.125Z,100284.22
2022-12-29T23:36:30.867Z,100285.94
2022-12-29T23:38:59.153Z,100290.47
2022-12-29T23:41:27.859Z,100294.03
2022-12-29T23:43:56.072Z,100287.94
2022-12-29T23:46:27.471Z,100292.34
2022-12-29T23:48:55.493Z,100297.66
2022-12-29T23:51:23.417Z,100295.69
2022-12-29T23:53:51.190Z,100306.16
2022-12-29T23:56:23.109Z,100301.59
2022-12-29T23:58:51.908Z,100297.28
